Connorsville, Ohio
Current Conditions -  °F | °C
As of 3:53 PM on Sunday 23 Nov 2014 (Local Time) from KHLG Reporting Station
Clear Clear  
Wind Chill: 63°   Ceiling: Unl
Heat Index: 63°   Visibility: 10mi
Dew Point: 46°   Wind: 12mph
Humidity: 54%   Direction: 140°SE
Pressure: 29.82"   Gusts: NA
Location:  40.2229°N, 80.7179°W
Report Text: KHLG 232053Z 14010KT 10SM CLR 17/08 A2982 RMK AO2 SLP100 T01720078 56041
Loading
Personal Weather Stations






























Interactive Weather Map New forecast layout! Learn more

10-Day Weather Forecast

Advertisements
Track Severe Weather on mobile